Emory, Utah
Current Conditions -  °F | °C
As of 6:58 AM on Thursday 23 Oct 2014 (Local Time) from KHIF Reporting Station
Overcast Overcast  
Wind Chill: 38°   Ceiling: 18000
Heat Index: 45°   Visibility: 10mi
Dew Point: 26°   Wind: 16mph
Humidity: 48%   Direction: 120°ESE
Pressure: 30.13"   Gusts: 24mph
Location:  40.9775°N, 111.442°W
Report Text: KHIF 231258Z AUTO 12014G21KT 10SM OVC180 07/M03 A3013 RMK AO2 SLP180 T00721033
Loading
Personal Weather Stations






























Interactive Weather Map
Tropical Storm Tracking
New forecast layout! Learn more

10-Day Weather Forecast

Advertisements
Track Severe Weather on mobile